Brandon, Colorado
Current Conditions -  °F | °C
As of 10:53 PM on Friday 28 Nov 2014 (Local Time) from KLAA Reporting Station
Clear Clear  
Wind Chill: 43°   Ceiling: Unl
Heat Index: 48°   Visibility: 10mi
Dew Point: 20°   Wind: 10mph
Humidity: 33%   Direction: 230°SW
Pressure: 29.74"   Gusts: NA
Location:  38.4343°N, 102.505°W
Report Text: KLAA 290553Z AUTO 23009KT 10SM CLR 09/M07 A2974 RMK AO2 SLP038 T00891067 10100 20033 58007
Loading
Personal Weather Stations






























Interactive Weather Map New forecast layout! Learn more

10-Day Weather Forecast

Advertisements
Track Severe Weather on mobile